sensor_id;sensor_type;location;lat;lon;timestamp;P1;durP1;ratioP1;P2;durP2;ratioP2
1220;SDS011;600;48.044;7.878;2022-08-01T00:00:17;2.27;;;2.07;;
1220;SDS011;600;48.044;7.878;2022-08-01T00:02:44;1.80;;;1.70;;
1220;SDS011;600;48.044;7.878;2022-08-01T00:05:10;2.23;;;2.13;;
1220;SDS011;600;48.044;7.878;2022-08-01T00:07:39;2.37;;;2.20;;
1220;SDS011;600;48.044;7.878;2022-08-01T00:10:06;2.03;;;1.93;;
1220;SDS011;600;48.044;7.878;2022-08-01T00:12:34;2.70;;;2.50;;
1220;SDS011;600;48.044;7.878;2022-08-01T00:15:01;2.37;;;2.17;;
1220;SDS011;600;48.044;7.878;2022-08-01T00:17:29;2.37;;;2.27;;
1220;SDS011;600;48.044;7.878;2022-08-01T00:19:55;2.53;;;2.33;;
1220;SDS011;600;48.044;7.878;2022-08-01T00:22:22;2.50;;;2.40;;
1220;SDS011;600;48.044;7.878;2022-08-01T00:24:50;2.03;;;1.93;;
1220;SDS011;600;48.044;7.878;2022-08-01T00:27:17;2.57;;;2.37;;
1220;SDS011;600;48.044;7.878;2022-08-01T00:29:44;2.20;;;2.10;;
1220;SDS011;600;48.044;7.878;2022-08-01T00:32:10;2.17;;;2.07;;
1220;SDS011;600;48.044;7.878;2022-08-01T00:34:39;2.23;;;2.13;;
1220;SDS011;600;48.044;7.878;2022-08-01T00:37:06;2.30;;;2.20;;
1220;SDS011;600;48.044;7.878;2022-08-01T00:39:33;2.80;;;2.17;;
1220;SDS011;600;48.044;7.878;2022-08-01T00:42:05;2.37;;;2.27;;
1220;SDS011;600;48.044;7.878;2022-08-01T00:44:32;2.10;;;2.00;;
1220;SDS011;600;48.044;7.878;2022-08-01T00:46:59;2.37;;;2.17;;
1220;SDS011;600;48.044;7.878;2022-08-01T00:49:25;2.10;;;2.00;;
1220;SDS011;600;48.044;7.878;2022-08-01T00:51:53;2.50;;;2.30;;
1220;SDS011;600;48.044;7.878;2022-08-01T00:54:20;2.40;;;2.30;;
1220;SDS011;600;48.044;7.878;2022-08-01T00:56:48;2.90;;;2.80;;
1220;SDS011;600;48.044;7.878;2022-08-01T00:59:16;2.93;;;2.73;;
1220;SDS011;600;48.044;7.878;2022-08-01T01:01:44;2.83;;;2.10;;
1220;SDS011;600;48.044;7.878;2022-08-01T01:04:11;1.90;;;1.80;;
1220;SDS011;600;48.044;7.878;2022-08-01T01:06:41;2.53;;;2.33;;
1220;SDS011;600;48.044;7.878;2022-08-01T01:12:01;2.70;;;2.50;;
1220;SDS011;600;48.044;7.878;2022-08-01T01:14:37;2.70;;;2.60;;
1220;SDS011;600;48.044;7.878;2022-08-01T01:17:09;2.77;;;2.57;;
1220;SDS011;600;48.044;7.878;2022-08-01T01:19:41;3.00;;;2.80;;
1220;SDS011;600;48.044;7.878;2022-08-01T01:22:18;3.73;;;3.30;;
1220;SDS011;600;48.044;7.878;2022-08-01T01:24:58;2.67;;;2.50;;
1220;SDS011;600;48.044;7.878;2022-08-01T01:27:36;2.80;;;2.60;;
1220;SDS011;600;48.044;7.878;2022-08-01T01:30:12;2.90;;;2.70;;
1220;SDS011;600;48.044;7.878;2022-08-01T01:32:41;5.30;;;2.50;;
1220;SDS011;600;48.044;7.878;2022-08-01T01:35:13;3.77;;;2.90;;
1220;SDS011;600;48.044;7.878;2022-08-01T01:37:43;3.30;;;3.00;;
1220;SDS011;600;48.044;7.878;2022-08-01T01:40:12;2.90;;;2.70;;
1220;SDS011;600;48.044;7.878;2022-08-01T01:42:41;3.00;;;2.80;;
1220;SDS011;600;48.044;7.878;2022-08-01T01:45:09;3.27;;;2.90;;
1220;SDS011;600;48.044;7.878;2022-08-01T01:47:37;2.87;;;2.67;;
1220;SDS011;600;48.044;7.878;2022-08-01T01:50:06;3.27;;;2.80;;
1220;SDS011;600;48.044;7.878;2022-08-01T01:52:37;2.97;;;2.77;;
1220;SDS011;600;48.044;7.878;2022-08-01T01:55:05;3.47;;;3.17;;
1220;SDS011;600;48.044;7.878;2022-08-01T01:57:35;3.03;;;2.83;;
1220;SDS011;600;48.044;7.878;2022-08-01T02:00:04;3.93;;;3.47;;
1220;SDS011;600;48.044;7.878;2022-08-01T02:02:32;3.40;;;3.10;;
1220;SDS011;600;48.044;7.878;2022-08-01T02:05:03;2.90;;;2.70;;
1220;SDS011;600;48.044;7.878;2022-08-01T02:07:31;3.03;;;2.83;;
1220;SDS011;600;48.044;7.878;2022-08-01T02:09:59;3.77;;;2.60;;
1220;SDS011;600;48.044;7.878;2022-08-01T02:12:27;3.00;;;2.80;;
1220;SDS011;600;48.044;7.878;2022-08-01T02:14:58;3.03;;;2.83;;
1220;SDS011;600;48.044;7.878;2022-08-01T02:17:26;3.50;;;3.30;;
1220;SDS011;600;48.044;7.878;2022-08-01T02:19:55;3.00;;;2.80;;
1220;SDS011;600;48.044;7.878;2022-08-01T02:22:25;2.83;;;2.63;;
1220;SDS011;600;48.044;7.878;2022-08-01T02:24:57;4.10;;;3.27;;
1220;SDS011;600;48.044;7.878;2022-08-01T02:27:28;2.70;;;2.50;;
1220;SDS011;600;48.044;7.878;2022-08-01T02:30:01;2.87;;;2.67;;
1220;SDS011;600;48.044;7.878;2022-08-01T02:32:34;3.33;;;3.13;;
1220;SDS011;600;48.044;7.878;2022-08-01T02:35:06;3.10;;;2.90;;
1220;SDS011;600;48.044;7.878;2022-08-01T02:37:37;3.67;;;3.33;;
1220;SDS011;600;48.044;7.878;2022-08-01T02:40:05;3.30;;;3.10;;
1220;SDS011;600;48.044;7.878;2022-08-01T02:42:36;3.23;;;2.83;;
1220;SDS011;600;48.044;7.878;2022-08-01T02:45:05;3.00;;;2.80;;
1220;SDS011;600;48.044;7.878;2022-08-01T02:47:34;3.50;;;3.20;;
1220;SDS011;600;48.044;7.878;2022-08-01T02:50:04;3.00;;;2.80;;
1220;SDS011;600;48.044;7.878;2022-08-01T02:52:33;3.60;;;3.30;;
1220;SDS011;600;48.044;7.878;2022-08-01T02:55:02;3.10;;;2.90;;
1220;SDS011;600;48.044;7.878;2022-08-01T02:57:30;3.80;;;3.50;;
1220;SDS011;600;48.044;7.878;2022-08-01T02:59:58;3.60;;;3.30;;
1220;SDS011;600;48.044;7.878;2022-08-01T03:02:26;3.37;;;3.07;;
1220;SDS011;600;48.044;7.878;2022-08-01T03:04:55;3.93;;;3.27;;
1220;SDS011;600;48.044;7.878;2022-08-01T03:07:23;3.27;;;2.97;;
1220;SDS011;600;48.044;7.878;2022-08-01T03:09:52;3.77;;;3.47;;
1220;SDS011;600;48.044;7.878;2022-08-01T03:12:22;3.83;;;3.43;;
1220;SDS011;600;48.044;7.878;2022-08-01T03:14:51;3.40;;;3.17;;
1220;SDS011;600;48.044;7.878;2022-08-01T03:17:22;3.70;;;3.40;;
1220;SDS011;600;48.044;7.878;2022-08-01T03:19:52;3.63;;;3.33;;
1220;SDS011;600;48.044;7.878;2022-08-01T03:22:20;3.27;;;3.03;;
1220;SDS011;600;48.044;7.878;2022-08-01T03:24:49;2.83;;;2.63;;
1220;SDS011;600;48.044;7.878;2022-08-01T03:27:18;3.50;;;3.20;;
1220;SDS011;600;48.044;7.878;2022-08-01T03:29:48;4.10;;;3.63;;
1220;SDS011;600;48.044;7.878;2022-08-01T03:32:17;3.67;;;3.40;;
1220;SDS011;600;48.044;7.878;2022-08-01T03:34:47;4.17;;;3.87;;
1220;SDS011;600;48.044;7.878;2022-08-01T03:37:14;3.93;;;3.30;;
1220;SDS011;600;48.044;7.878;2022-08-01T03:39:50;3.27;;;3.07;;
1220;SDS011;600;48.044;7.878;2022-08-01T03:42:23;4.60;;;3.60;;
1220;SDS011;600;48.044;7.878;2022-08-01T03:44:56;3.67;;;3.37;;
1220;SDS011;600;48.044;7.878;2022-08-01T03:47:26;4.07;;;3.77;;
1220;SDS011;600;48.044;7.878;2022-08-01T03:49:56;4.67;;;4.27;;
1220;SDS011;600;48.044;7.878;2022-08-01T03:52:24;4.00;;;3.70;;
1220;SDS011;600;48.044;7.878;2022-08-01T03:54:53;3.93;;;3.63;;
1220;SDS011;600;48.044;7.878;2022-08-01T03:57:23;4.40;;;4.10;;
1220;SDS011;600;48.044;7.878;2022-08-01T03:59:53;5.00;;;3.97;;
1220;SDS011;600;48.044;7.878;2022-08-01T04:02:21;4.30;;;4.00;;
1220;SDS011;600;48.044;7.878;2022-08-01T04:04:48;3.57;;;3.30;;
1220;SDS011;600;48.044;7.878;2022-08-01T04:07:21;4.27;;;3.97;;
1220;SDS011;600;48.044;7.878;2022-08-01T04:09:49;4.30;;;3.90;;
1220;SDS011;600;48.044;7.878;2022-08-01T04:12:16;4.10;;;3.80;;
1220;SDS011;600;48.044;7.878;2022-08-01T04:14:44;4.27;;;3.80;;
1220;SDS011;600;48.044;7.878;2022-08-01T04:17:11;4.00;;;3.70;;
1220;SDS011;600;48.044;7.878;2022-08-01T04:19:38;4.10;;;3.80;;
1220;SDS011;600;48.044;7.878;2022-08-01T04:22:05;6.17;;;3.37;;
1220;SDS011;600;48.044;7.878;2022-08-01T04:24:32;3.93;;;3.73;;
1220;SDS011;600;48.044;7.878;2022-08-01T04:27:01;3.53;;;3.33;;
1220;SDS011;600;48.044;7.878;2022-08-01T04:29:30;4.07;;;3.67;;
1220;SDS011;600;48.044;7.878;2022-08-01T04:32:00;4.23;;;3.50;;
1220;SDS011;600;48.044;7.878;2022-08-01T04:34:28;5.40;;;3.43;;
1220;SDS011;600;48.044;7.878;2022-08-01T04:36:57;3.33;;;3.13;;
1220;SDS011;600;48.044;7.878;2022-08-01T04:39:26;4.20;;;3.90;;
1220;SDS011;600;48.044;7.878;2022-08-01T04:41:56;4.40;;;4.07;;
1220;SDS011;600;48.044;7.878;2022-08-01T04:44:25;4.00;;;3.77;;
1220;SDS011;600;48.044;7.878;2022-08-01T04:46:53;4.47;;;4.07;;
1220;SDS011;600;48.044;7.878;2022-08-01T04:49:23;4.20;;;3.90;;
1220;SDS011;600;48.044;7.878;2022-08-01T04:51:50;4.60;;;4.20;;
1220;SDS011;600;48.044;7.878;2022-08-01T04:54:22;4.13;;;3.83;;
1220;SDS011;600;48.044;7.878;2022-08-01T04:56:49;4.90;;;4.40;;
1220;SDS011;600;48.044;7.878;2022-08-01T04:59:18;5.80;;;4.07;;
1220;SDS011;600;48.044;7.878;2022-08-01T05:02:02;4.80;;;4.30;;
1220;SDS011;600;48.044;7.878;2022-08-01T05:04:30;4.57;;;4.10;;
1220;SDS011;600;48.044;7.878;2022-08-01T05:06:57;4.30;;;3.90;;
1220;SDS011;600;48.044;7.878;2022-08-01T05:09:24;4.50;;;4.20;;
1220;SDS011;600;48.044;7.878;2022-08-01T05:11:51;4.50;;;4.20;;
1220;SDS011;600;48.044;7.878;2022-08-01T05:14:18;4.93;;;4.30;;
1220;SDS011;600;48.044;7.878;2022-08-01T05:16:46;4.90;;;4.57;;
1220;SDS011;600;48.044;7.878;2022-08-01T05:19:12;6.60;;;4.60;;
1220;SDS011;600;48.044;7.878;2022-08-01T05:21:40;4.70;;;4.33;;
1220;SDS011;600;48.044;7.878;2022-08-01T05:24:07;5.73;;;4.93;;
1220;SDS011;600;48.044;7.878;2022-08-01T05:26:34;4.80;;;4.43;;
1220;SDS011;600;48.044;7.878;2022-08-01T05:29:01;4.70;;;4.30;;
1220;SDS011;600;48.044;7.878;2022-08-01T05:31:28;4.33;;;4.03;;
1220;SDS011;600;48.044;7.878;2022-08-01T05:33:54;4.17;;;3.83;;
1220;SDS011;600;48.044;7.878;2022-08-01T05:36:21;6.00;;;4.70;;
1220;SDS011;600;48.044;7.878;2022-08-01T05:38:49;5.00;;;4.50;;
1220;SDS011;600;48.044;7.878;2022-08-01T05:41:16;5.60;;;5.10;;
1220;SDS011;600;48.044;7.878;2022-08-01T05:43:43;4.57;;;4.27;;
1220;SDS011;600;48.044;7.878;2022-08-01T05:46:09;6.07;;;4.57;;
1220;SDS011;600;48.044;7.878;2022-08-01T05:48:36;4.20;;;3.90;;
1220;SDS011;600;48.044;7.878;2022-08-01T05:51:03;3.93;;;3.53;;
1220;SDS011;600;48.044;7.878;2022-08-01T05:53:30;4.23;;;3.93;;
1220;SDS011;600;48.044;7.878;2022-08-01T05:56:00;4.70;;;4.40;;
1220;SDS011;600;48.044;7.878;2022-08-01T05:58:27;4.93;;;4.53;;
1220;SDS011;600;48.044;7.878;2022-08-01T06:00:54;4.97;;;4.47;;
1220;SDS011;600;48.044;7.878;2022-08-01T06:03:21;4.70;;;4.40;;
1220;SDS011;600;48.044;7.878;2022-08-01T06:05:47;3.93;;;3.73;;
1220;SDS011;600;48.044;7.878;2022-08-01T06:08:14;3.90;;;3.70;;
1220;SDS011;600;48.044;7.878;2022-08-01T06:10:41;4.70;;;4.30;;
1220;SDS011;600;48.044;7.878;2022-08-01T06:13:09;8.33;;;4.30;;
1220;SDS011;600;48.044;7.878;2022-08-01T06:15:35;4.63;;;4.33;;
1220;SDS011;600;48.044;7.878;2022-08-01T06:18:02;4.60;;;4.30;;
1220;SDS011;600;48.044;7.878;2022-08-01T06:20:30;4.67;;;4.37;;
1220;SDS011;600;48.044;7.878;2022-08-01T06:22:56;4.77;;;4.37;;
1220;SDS011;600;48.044;7.878;2022-08-01T06:25:23;4.87;;;4.53;;
1220;SDS011;600;48.044;7.878;2022-08-01T06:27:50;4.50;;;4.10;;
1220;SDS011;600;48.044;7.878;2022-08-01T06:30:18;4.20;;;3.90;;
1220;SDS011;600;48.044;7.878;2022-08-01T06:32:45;3.90;;;3.60;;
1220;SDS011;600;48.044;7.878;2022-08-01T06:35:12;4.47;;;4.17;;
1220;SDS011;600;48.044;7.878;2022-08-01T06:37:39;4.30;;;4.00;;
1220;SDS011;600;48.044;7.878;2022-08-01T06:40:07;4.20;;;3.90;;
1220;SDS011;600;48.044;7.878;2022-08-01T06:42:35;4.00;;;3.70;;
1220;SDS011;600;48.044;7.878;2022-08-01T06:45:02;3.90;;;3.60;;
1220;SDS011;600;48.044;7.878;2022-08-01T06:47:31;4.80;;;4.40;;
1220;SDS011;600;48.044;7.878;2022-08-01T06:49:57;4.90;;;4.50;;
1220;SDS011;600;48.044;7.878;2022-08-01T06:52:24;4.23;;;3.83;;
1220;SDS011;600;48.044;7.878;2022-08-01T06:54:51;4.17;;;3.87;;
1220;SDS011;600;48.044;7.878;2022-08-01T06:57:18;5.07;;;4.63;;
1220;SDS011;600;48.044;7.878;2022-08-01T06:59:45;4.90;;;4.43;;
1220;SDS011;600;48.044;7.878;2022-08-01T07:02:11;4.47;;;4.03;;
1220;SDS011;600;48.044;7.878;2022-08-01T07:04:39;4.70;;;4.30;;
1220;SDS011;600;48.044;7.878;2022-08-01T07:07:06;4.30;;;4.00;;
1220;SDS011;600;48.044;7.878;2022-08-01T07:09:33;3.97;;;3.67;;
1220;SDS011;600;48.044;7.878;2022-08-01T07:11:59;5.13;;;4.50;;
1220;SDS011;600;48.044;7.878;2022-08-01T07:14:26;4.63;;;4.30;;
1220;SDS011;600;48.044;7.878;2022-08-01T07:16:53;4.13;;;3.87;;
1220;SDS011;600;48.044;7.878;2022-08-01T07:19:19;4.60;;;4.20;;
1220;SDS011;600;48.044;7.878;2022-08-01T07:21:48;3.80;;;3.60;;
1220;SDS011;600;48.044;7.878;2022-08-01T07:24:14;3.77;;;3.47;;
1220;SDS011;600;48.044;7.878;2022-08-01T07:26:41;3.93;;;3.60;;
1220;SDS011;600;48.044;7.878;2022-08-01T07:29:09;3.40;;;3.20;;
1220;SDS011;600;48.044;7.878;2022-08-01T07:31:36;4.13;;;3.77;;
1220;SDS011;600;48.044;7.878;2022-08-01T07:34:02;4.53;;;4.07;;
1220;SDS011;600;48.044;7.878;2022-08-01T07:36:29;4.00;;;3.70;;
1220;SDS011;600;48.044;7.878;2022-08-01T07:38:57;4.37;;;3.97;;
1220;SDS011;600;48.044;7.878;2022-08-01T07:41:24;4.50;;;4.20;;
1220;SDS011;600;48.044;7.878;2022-08-01T07:43:50;3.70;;;3.50;;
1220;SDS011;600;48.044;7.878;2022-08-01T07:46:17;3.87;;;3.60;;
1220;SDS011;600;48.044;7.878;2022-08-01T07:48:44;4.43;;;4.03;;
1220;SDS011;600;48.044;7.878;2022-08-01T07:51:11;5.10;;;3.83;;
1220;SDS011;600;48.044;7.878;2022-08-01T07:53:37;4.37;;;3.97;;
1220;SDS011;600;48.044;7.878;2022-08-01T07:56:05;4.13;;;3.73;;
1220;SDS011;600;48.044;7.878;2022-08-01T07:58:32;4.40;;;3.70;;
1220;SDS011;600;48.044;7.878;2022-08-01T08:00:59;3.90;;;3.60;;
1220;SDS011;600;48.044;7.878;2022-08-01T08:03:26;4.60;;;4.20;;
1220;SDS011;600;48.044;7.878;2022-08-01T08:05:52;3.70;;;3.50;;
1220;SDS011;600;48.044;7.878;2022-08-01T08:08:19;3.43;;;3.13;;
1220;SDS011;600;48.044;7.878;2022-08-01T08:10:46;3.60;;;3.33;;
1220;SDS011;600;48.044;7.878;2022-08-01T08:13:14;3.70;;;3.40;;
1220;SDS011;600;48.044;7.878;2022-08-01T08:15:40;3.60;;;3.40;;
1220;SDS011;600;48.044;7.878;2022-08-01T08:18:07;3.27;;;3.07;;
1220;SDS011;600;48.044;7.878;2022-08-01T08:20:34;4.40;;;3.40;;
1220;SDS011;600;48.044;7.878;2022-08-01T08:23:01;3.60;;;3.30;;
1220;SDS011;600;48.044;7.878;2022-08-01T08:25:47;3.40;;;3.13;;
1220;SDS011;600;48.044;7.878;2022-08-01T08:28:16;2.60;;;2.50;;
1220;SDS011;600;48.044;7.878;2022-08-01T08:30:43;3.13;;;2.93;;
1220;SDS011;600;48.044;7.878;2022-08-01T08:33:10;3.63;;;3.43;;
1220;SDS011;600;48.044;7.878;2022-08-01T08:35:38;5.50;;;4.10;;
1220;SDS011;600;48.044;7.878;2022-08-01T08:38:06;3.83;;;3.53;;
1220;SDS011;600;48.044;7.878;2022-08-01T08:40:34;3.80;;;3.50;;
1220;SDS011;600;48.044;7.878;2022-08-01T08:43:03;3.93;;;3.53;;
1220;SDS011;600;48.044;7.878;2022-08-01T08:45:32;3.40;;;3.20;;
1220;SDS011;600;48.044;7.878;2022-08-01T08:47:59;3.03;;;2.83;;
1220;SDS011;600;48.044;7.878;2022-08-01T08:50:28;3.03;;;2.70;;
1220;SDS011;600;48.044;7.878;2022-08-01T08:52:55;3.73;;;3.43;;
1220;SDS011;600;48.044;7.878;2022-08-01T08:55:22;3.80;;;3.50;;
1220;SDS011;600;48.044;7.878;2022-08-01T08:57:50;3.13;;;2.93;;
1220;SDS011;600;48.044;7.878;2022-08-01T09:00:18;3.33;;;3.13;;
1220;SDS011;600;48.044;7.878;2022-08-01T09:02:47;3.40;;;3.10;;
1220;SDS011;600;48.044;7.878;2022-08-01T09:07:50;3.83;;;3.53;;
1220;SDS011;600;48.044;7.878;2022-08-01T09:10:17;3.70;;;3.50;;
1220;SDS011;600;48.044;7.878;2022-08-01T09:15:37;3.20;;;3.00;;
1220;SDS011;600;48.044;7.878;2022-08-01T09:18:06;3.47;;;3.27;;
1220;SDS011;600;48.044;7.878;2022-08-01T09:20:32;3.83;;;3.53;;
1220;SDS011;600;48.044;7.878;2022-08-01T09:23:01;3.80;;;3.50;;
1220;SDS011;600;48.044;7.878;2022-08-01T09:25:28;3.50;;;3.20;;
1220;SDS011;600;48.044;7.878;2022-08-01T09:28:03;3.37;;;3.07;;
1220;SDS011;600;48.044;7.878;2022-08-01T09:30:36;4.03;;;3.73;;
1220;SDS011;600;48.044;7.878;2022-08-01T09:33:06;6.30;;;3.83;;
1220;SDS011;600;48.044;7.878;2022-08-01T09:35:33;4.00;;;2.97;;
1220;SDS011;600;48.044;7.878;2022-08-01T09:38:14;3.97;;;3.13;;
1220;SDS011;600;48.044;7.878;2022-08-01T09:40:46;3.40;;;3.10;;
1220;SDS011;600;48.044;7.878;2022-08-01T09:43:14;3.50;;;3.20;;
1220;SDS011;600;48.044;7.878;2022-08-01T09:45:41;3.47;;;3.17;;
1220;SDS011;600;48.044;7.878;2022-08-01T09:48:10;3.23;;;2.67;;
1220;SDS011;600;48.044;7.878;2022-08-01T09:50:38;3.83;;;3.53;;
1220;SDS011;600;48.044;7.878;2022-08-01T09:53:06;2.90;;;2.70;;
1220;SDS011;600;48.044;7.878;2022-08-01T09:55:33;2.93;;;2.73;;
1220;SDS011;600;48.044;7.878;2022-08-01T09:58:00;3.93;;;3.40;;
1220;SDS011;600;48.044;7.878;2022-08-01T10:00:29;3.57;;;3.27;;
1220;SDS011;600;48.044;7.878;2022-08-01T10:02:57;2.73;;;2.63;;
1220;SDS011;600;48.044;7.878;2022-08-01T10:07:57;3.07;;;2.87;;
1220;SDS011;600;48.044;7.878;2022-08-01T10:10:24;3.47;;;3.27;;
1220;SDS011;600;48.044;7.878;2022-08-01T10:12:51;3.17;;;3.00;;
1220;SDS011;600;48.044;7.878;2022-08-01T10:15:19;2.80;;;2.70;;
1220;SDS011;600;48.044;7.878;2022-08-01T10:17:50;3.20;;;3.00;;
1220;SDS011;600;48.044;7.878;2022-08-01T10:20:20;3.17;;;2.80;;
1220;SDS011;600;48.044;7.878;2022-08-01T10:22:49;2.80;;;2.70;;
1220;SDS011;600;48.044;7.878;2022-08-01T10:25:23;6.60;;;3.30;;
1220;SDS011;600;48.044;7.878;2022-08-01T10:27:54;3.83;;;3.00;;
1220;SDS011;600;48.044;7.878;2022-08-01T10:30:25;2.87;;;2.67;;
1220;SDS011;600;48.044;7.878;2022-08-01T10:32:53;3.40;;;3.10;;
1220;SDS011;600;48.044;7.878;2022-08-01T10:35:21;3.40;;;3.10;;
1220;SDS011;600;48.044;7.878;2022-08-01T10:37:48;3.30;;;3.00;;
1220;SDS011;600;48.044;7.878;2022-08-01T10:40:16;3.10;;;2.80;;
1220;SDS011;600;48.044;7.878;2022-08-01T10:42:45;4.40;;;3.30;;
1220;SDS011;600;48.044;7.878;2022-08-01T10:45:13;5.93;;;3.20;;
1220;SDS011;600;48.044;7.878;2022-08-01T10:47:42;4.37;;;3.20;;
1220;SDS011;600;48.044;7.878;2022-08-01T10:50:15;3.23;;;3.03;;
1220;SDS011;600;48.044;7.878;2022-08-01T10:53:04;2.63;;;2.43;;
1220;SDS011;600;48.044;7.878;2022-08-01T10:55:44;3.10;;;2.80;;
1220;SDS011;600;48.044;7.878;2022-08-01T10:58:13;2.67;;;2.43;;
1220;SDS011;600;48.044;7.878;2022-08-01T11:00:40;3.20;;;3.00;;
1220;SDS011;600;48.044;7.878;2022-08-01T11:03:06;10.23;;;3.63;;
1220;SDS011;600;48.044;7.878;2022-08-01T11:05:34;58.63;;;7.27;;
1220;SDS011;600;48.044;7.878;2022-08-01T11:08:02;14.60;;;4.27;;
1220;SDS011;600;48.044;7.878;2022-08-01T11:10:33;72.97;;;9.13;;
1220;SDS011;600;48.044;7.878;2022-08-01T11:13:03;8.73;;;3.23;;
1220;SDS011;600;48.044;7.878;2022-08-01T11:15:34;2.47;;;2.30;;
1220;SDS011;600;48.044;7.878;2022-08-01T11:18:01;2.37;;;2.17;;
1220;SDS011;600;48.044;7.878;2022-08-01T11:20:29;4.75;;;2.75;;
1220;SDS011;600;48.044;7.878;2022-08-01T11:31:43;3.30;;;3.10;;
1220;SDS011;600;48.044;7.878;2022-08-01T11:34:11;6.70;;;3.23;;
1220;SDS011;600;48.044;7.878;2022-08-01T11:36:37;6.63;;;2.57;;
1220;SDS011;600;48.044;7.878;2022-08-01T11:39:14;3.17;;;2.87;;
1220;SDS011;600;48.044;7.878;2022-08-01T11:41:43;2.57;;;2.47;;
1220;SDS011;600;48.044;7.878;2022-08-01T11:44:12;2.33;;;2.23;;
1220;SDS011;600;48.044;7.878;2022-08-01T11:49:33;2.70;;;2.50;;
1220;SDS011;600;48.044;7.878;2022-08-01T11:52:12;3.30;;;3.00;;
1220;SDS011;600;48.044;7.878;2022-08-01T11:54:42;2.90;;;2.70;;
1220;SDS011;600;48.044;7.878;2022-08-01T11:57:10;3.03;;;2.83;;
1220;SDS011;600;48.044;7.878;2022-08-01T11:59:39;2.80;;;2.60;;
1220;SDS011;600;48.044;7.878;2022-08-01T12:02:16;2.73;;;2.53;;
1220;SDS011;600;48.044;7.878;2022-08-01T12:04:47;3.37;;;3.03;;
1220;SDS011;600;48.044;7.878;2022-08-01T12:07:15;3.20;;;2.90;;
1220;SDS011;600;48.044;7.878;2022-08-01T12:09:42;3.77;;;2.83;;
1220;SDS011;600;48.044;7.878;2022-08-01T12:12:11;2.83;;;2.63;;
1220;SDS011;600;48.044;7.878;2022-08-01T12:14:42;8.37;;;3.23;;
1220;SDS011;600;48.044;7.878;2022-08-01T12:17:09;4.23;;;3.17;;
1220;SDS011;600;48.044;7.878;2022-08-01T12:19:37;7.60;;;3.70;;
1220;SDS011;600;48.044;7.878;2022-08-01T12:22:08;8.90;;;3.27;;
1220;SDS011;600;48.044;7.878;2022-08-01T12:24:37;3.90;;;3.20;;
1220;SDS011;600;48.044;7.878;2022-08-01T12:27:06;5.17;;;3.40;;
1220;SDS011;600;48.044;7.878;2022-08-01T12:29:34;3.30;;;3.03;;
1220;SDS011;600;48.044;7.878;2022-08-01T12:32:03;3.10;;;2.90;;
1220;SDS011;600;48.044;7.878;2022-08-01T12:34:30;3.13;;;2.83;;
1220;SDS011;600;48.044;7.878;2022-08-01T12:37:00;2.90;;;2.70;;
1220;SDS011;600;48.044;7.878;2022-08-01T12:39:29;3.10;;;2.90;;
1220;SDS011;600;48.044;7.878;2022-08-01T12:41:58;4.30;;;3.30;;
1220;SDS011;600;48.044;7.878;2022-08-01T12:44:25;2.90;;;2.80;;
1220;SDS011;600;48.044;7.878;2022-08-01T12:46:54;5.30;;;2.90;;
1220;SDS011;600;48.044;7.878;2022-08-01T12:49:21;3.53;;;3.23;;
1220;SDS011;600;48.044;7.878;2022-08-01T12:51:48;3.67;;;3.47;;
1220;SDS011;600;48.044;7.878;2022-08-01T12:54:16;3.03;;;2.93;;
1220;SDS011;600;48.044;7.878;2022-08-01T12:56:43;3.23;;;3.00;;
1220;SDS011;600;48.044;7.878;2022-08-01T12:59:19;3.20;;;3.00;;
1220;SDS011;600;48.044;7.878;2022-08-01T13:01:49;2.63;;;2.53;;
1220;SDS011;600;48.044;7.878;2022-08-01T13:04:15;3.87;;;3.57;;
1220;SDS011;600;48.044;7.878;2022-08-01T13:06:42;3.30;;;3.07;;
1220;SDS011;600;48.044;7.878;2022-08-01T13:09:09;3.37;;;3.17;;
1220;SDS011;600;48.044;7.878;2022-08-01T13:11:38;3.60;;;3.33;;
1220;SDS011;600;48.044;7.878;2022-08-01T13:14:05;3.30;;;3.10;;
1220;SDS011;600;48.044;7.878;2022-08-01T13:16:32;4.97;;;3.47;;
1220;SDS011;600;48.044;7.878;2022-08-01T13:19:11;2.30;;;2.20;;
1220;SDS011;600;48.044;7.878;2022-08-01T13:21:38;2.67;;;2.57;;
1220;SDS011;600;48.044;7.878;2022-08-01T13:24:05;2.80;;;2.60;;
1220;SDS011;600;48.044;7.878;2022-08-01T13:26:42;2.70;;;2.50;;
1220;SDS011;600;48.044;7.878;2022-08-01T13:29:12;3.20;;;2.87;;
1220;SDS011;600;48.044;7.878;2022-08-01T13:31:40;3.30;;;3.10;;
1220;SDS011;600;48.044;7.878;2022-08-01T13:34:07;3.33;;;3.13;;
1220;SDS011;600;48.044;7.878;2022-08-01T13:36:34;3.17;;;2.97;;
1220;SDS011;600;48.044;7.878;2022-08-01T13:39:02;2.97;;;2.87;;
1220;SDS011;600;48.044;7.878;2022-08-01T13:41:48;2.53;;;2.40;;
1220;SDS011;600;48.044;7.878;2022-08-01T13:44:15;3.00;;;2.80;;
1220;SDS011;600;48.044;7.878;2022-08-01T13:46:42;2.73;;;2.60;;
1220;SDS011;600;48.044;7.878;2022-08-01T13:49:10;3.20;;;3.00;;
1220;SDS011;600;48.044;7.878;2022-08-01T13:51:38;3.30;;;3.10;;
1220;SDS011;600;48.044;7.878;2022-08-01T13:54:05;4.20;;;3.50;;
1220;SDS011;600;48.044;7.878;2022-08-01T13:56:32;3.00;;;2.80;;
1220;SDS011;600;48.044;7.878;2022-08-01T13:59:00;4.80;;;3.10;;
1220;SDS011;600;48.044;7.878;2022-08-01T14:01:28;2.90;;;2.80;;
1220;SDS011;600;48.044;7.878;2022-08-01T14:03:54;3.13;;;2.93;;
1220;SDS011;600;48.044;7.878;2022-08-01T14:06:21;4.10;;;3.60;;
1220;SDS011;600;48.044;7.878;2022-08-01T14:08:48;2.90;;;2.70;;
1220;SDS011;600;48.044;7.878;2022-08-01T14:11:15;2.97;;;2.80;;
1220;SDS011;600;48.044;7.878;2022-08-01T14:13:44;3.03;;;2.93;;
1220;SDS011;600;48.044;7.878;2022-08-01T14:16:12;3.40;;;3.20;;
1220;SDS011;600;48.044;7.878;2022-08-01T14:18:38;2.93;;;2.73;;
1220;SDS011;600;48.044;7.878;2022-08-01T14:21:05;3.57;;;3.33;;
1220;SDS011;600;48.044;7.878;2022-08-01T14:23:32;3.10;;;2.90;;
1220;SDS011;600;48.044;7.878;2022-08-01T14:25:59;4.30;;;3.30;;
1220;SDS011;600;48.044;7.878;2022-08-01T14:28:26;3.67;;;3.37;;
1220;SDS011;600;48.044;7.878;2022-08-01T14:30:53;3.50;;;3.30;;
1220;SDS011;600;48.044;7.878;2022-08-01T14:33:22;3.23;;;3.03;;
1220;SDS011;600;48.044;7.878;2022-08-01T14:35:49;4.10;;;3.57;;
1220;SDS011;600;48.044;7.878;2022-08-01T14:38:16;7.57;;;3.23;;
1220;SDS011;600;48.044;7.878;2022-08-01T14:40:43;4.60;;;3.17;;
1220;SDS011;600;48.044;7.878;2022-08-01T14:43:11;6.00;;;3.90;;
1220;SDS011;600;48.044;7.878;2022-08-01T14:49:08;8.43;;;3.60;;
1220;SDS011;600;48.044;7.878;2022-08-01T14:51:37;3.17;;;2.90;;
1220;SDS011;600;48.044;7.878;2022-08-01T14:54:05;3.80;;;3.33;;
1220;SDS011;600;48.044;7.878;2022-08-01T14:56:32;7.60;;;3.30;;
1220;SDS011;600;48.044;7.878;2022-08-01T14:58:58;3.83;;;3.03;;
1220;SDS011;600;48.044;7.878;2022-08-01T15:01:25;4.83;;;3.20;;
1220;SDS011;600;48.044;7.878;2022-08-01T15:03:52;5.03;;;3.20;;
1220;SDS011;600;48.044;7.878;2022-08-01T15:06:20;11.30;;;4.40;;
1220;SDS011;600;48.044;7.878;2022-08-01T15:08:47;5.53;;;3.67;;
1220;SDS011;600;48.044;7.878;2022-08-01T15:11:14;4.00;;;3.13;;
1220;SDS011;600;48.044;7.878;2022-08-01T15:13:41;11.93;;;4.17;;
1220;SDS011;600;48.044;7.878;2022-08-01T15:16:08;10.33;;;3.77;;
1220;SDS011;600;48.044;7.878;2022-08-01T15:18:34;17.67;;;4.00;;
1220;SDS011;600;48.044;7.878;2022-08-01T15:21:01;15.13;;;4.30;;
1220;SDS011;600;48.044;7.878;2022-08-01T15:23:29;7.63;;;3.93;;
1220;SDS011;600;48.044;7.878;2022-08-01T15:25:56;14.70;;;4.20;;
1220;SDS011;600;48.044;7.878;2022-08-01T15:28:23;9.53;;;4.60;;
1220;SDS011;600;48.044;7.878;2022-08-01T15:30:55;13.07;;;4.20;;
1220;SDS011;600;48.044;7.878;2022-08-01T15:33:24;10.43;;;4.80;;
1220;SDS011;600;48.044;7.878;2022-08-01T15:35:50;13.57;;;4.40;;
1220;SDS011;600;48.044;7.878;2022-08-01T15:38:17;5.07;;;3.50;;
1220;SDS011;600;48.044;7.878;2022-08-01T15:40:45;5.27;;;3.50;;
1220;SDS011;600;48.044;7.878;2022-08-01T15:43:12;4.87;;;3.57;;
1220;SDS011;600;48.044;7.878;2022-08-01T15:45:39;5.07;;;3.80;;
1220;SDS011;600;48.044;7.878;2022-08-01T15:48:05;3.40;;;3.10;;
1220;SDS011;600;48.044;7.878;2022-08-01T15:50:32;3.97;;;3.40;;
1220;SDS011;600;48.044;7.878;2022-08-01T15:52:59;5.20;;;3.43;;
1220;SDS011;600;48.044;7.878;2022-08-01T15:55:26;4.63;;;3.10;;
1220;SDS011;600;48.044;7.878;2022-08-01T15:57:54;3.27;;;2.87;;
1220;SDS011;600;48.044;7.878;2022-08-01T16:00:21;4.70;;;3.50;;
1220;SDS011;600;48.044;7.878;2022-08-01T16:02:48;3.67;;;3.20;;